Time;durP1;ratioP1;P1;durP2;ratioP2;P2;SDS_P1;SDS_P2;PMS_P1;PMS_P2;Temp;Humidity;BMP_temperature;BMP_pressure;BME280_temperature;BME280_humidity;BME280_pressure;Samples;Min_cycle;Max_cycle;Signal;HPM_P1;HPM_P2
2022/01/18 00:00:11;;;;;;;34.90;24.70;;;3.60;99.90;;;4.55;100.00;99694.41;5183871;28;20232;-63
2022/01/18 00:02:44;;;;;;;32.67;25.40;;;3.60;99.90;;;4.49;100.00;99690.50;5191446;28;20632;-63
2022/01/18 00:05:19;;;;;;;31.37;24.03;;;3.60;99.90;;;4.48;100.00;99686.13;5185985;28;20245;-63
2022/01/18 00:07:52;;;;;;;35.50;24.57;;;3.60;99.90;;;4.47;100.00;99691.94;5187048;28;20230;-63
2022/01/18 00:10:31;;;;;;;36.53;25.00;;;3.60;99.90;;;4.48;100.00;99691.19;5186171;28;20284;-64
2022/01/18 00:13:22;;;;;;;32.00;24.20;;;3.70;99.90;;;4.49;100.00;99702.22;5186062;28;20276;-62
2022/01/18 00:16:09;;;;;;;34.33;24.40;;;3.60;99.90;;;4.49;100.00;99700.63;5184648;28;20229;-63
2022/01/18 00:18:48;;;;;;;31.50;23.13;;;3.60;99.90;;;4.50;100.00;99707.47;5187230;28;20226;-63
2022/01/18 00:21:32;;;;;;;31.60;23.77;;;3.70;99.90;;;4.52;100.00;99702.56;5183862;28;20228;-64
2022/01/18 00:24:07;;;;;;;40.20;26.27;;;3.70;99.90;;;4.53;100.00;99708.56;5187023;28;20248;-63
2022/01/18 00:26:42;;;;;;;33.23;23.53;;;3.70;99.90;;;4.53;100.00;99703.50;5186966;28;20244;-62
2022/01/18 00:29:17;;;;;;;33.80;25.10;;;3.70;99.90;;;4.57;100.00;99710.66;5189534;28;20218;-64
2022/01/18 00:32:03;;;;;;;30.20;23.27;;;3.70;99.90;;;4.57;100.00;99709.03;5189550;28;20224;-63
2022/01/18 00:34:39;;;;;;;32.67;23.77;;;3.70;99.90;;;4.60;100.00;99711.00;5186037;28;20286;-63
2022/01/18 00:37:25;;;;;;;37.33;26.73;;;3.70;99.90;;;4.53;100.00;99709.44;5187171;28;20218;-64
2022/01/18 00:39:58;;;;;;;32.97;24.83;;;3.70;99.90;;;4.57;100.00;99719.16;5185326;28;20423;-63
2022/01/18 00:42:33;;;;;;;32.63;23.37;;;3.70;99.90;;;4.56;100.00;99719.00;5186417;28;20237;-64
2022/01/18 00:45:06;;;;;;;33.77;23.87;;;3.70;99.90;;;4.60;100.00;99716.06;5186802;28;20236;-64
2022/01/18 00:47:39;;;;;;;39.77;26.20;;;3.70;99.90;;;4.60;100.00;99718.59;5186540;28;20218;-64
2022/01/18 00:50:12;;;;;;;38.17;25.40;;;3.70;99.90;;;4.61;100.00;99725.50;5186331;28;20265;-63
2022/01/18 00:52:50;;;;;;;32.20;23.10;;;3.70;99.90;;;4.60;100.00;99728.72;5186114;28;20309;-64
2022/01/18 00:55:26;;;;;;;32.70;23.90;;;3.70;99.90;;;4.61;100.00;99728.91;5188528;28;20572;-63
2022/01/18 00:58:00;;;;;;;37.13;25.33;;;3.70;99.90;;;4.63;100.00;99729.06;5185958;28;20708;-63
2022/01/18 01:00:33;;;;;;;35.27;24.33;;;3.70;99.90;;;4.64;100.00;99723.28;5185212;28;20225;-63
2022/01/18 01:03:07;;;;;;;35.63;25.73;;;3.60;99.90;;;4.66;100.00;99729.41;5190144;28;20587;-63
2022/01/18 01:05:40;;;;;;;34.83;24.17;;;3.60;99.90;;;4.62;100.00;99740.84;5184710;28;20218;-64
2022/01/18 01:08:13;;;;;;;38.63;25.43;;;3.70;99.90;;;4.60;100.00;99739.75;5186937;28;20223;-63
2022/01/18 01:10:46;;;;;;;32.27;23.87;;;3.70;99.90;;;4.60;100.00;99741.41;5186187;28;20235;-64
2022/01/18 01:13:21;;;;;;;38.40;25.63;;;3.70;99.90;;;4.61;100.00;99748.28;5185834;28;20377;-63
2022/01/18 01:16:06;;;;;;;33.73;23.53;;;3.70;99.90;;;4.63;100.00;99746.78;5186384;28;20225;-63
2022/01/18 01:18:47;;;;;;;36.50;24.60;;;3.70;99.90;;;4.64;100.00;99748.63;5185584;28;20230;-64
2022/01/18 01:33:24;;;;;;;41.73;27.87;;;3.80;99.90;;;4.61;100.00;99754.25;5186578;28;20233;-63
2022/01/18 01:36:11;;;;;;;36.37;25.57;;;3.70;99.90;;;4.61;100.00;99763.47;5179401;28;20261;-64
2022/01/18 01:41:50;;;;;;;39.03;26.53;;;3.70;99.90;;;4.68;100.00;99771.00;5184701;28;20314;-64
2022/01/18 01:44:36;;;;;;;35.83;26.20;;;3.70;99.90;;;4.65;100.00;99771.56;5186261;28;20228;-64
2022/01/18 01:47:13;;;;;;;35.63;26.63;;;3.70;99.90;;;4.63;100.00;99767.94;5183322;28;20675;-63
2022/01/18 01:49:50;;;;;;;33.70;24.90;;;3.70;99.90;;;4.64;100.00;99774.84;5185713;28;20587;-63
2022/01/18 01:52:23;;;;;;;36.47;25.60;;;3.70;99.90;;;4.65;100.00;99766.50;5185418;28;20271;-63
2022/01/18 01:54:56;;;;;;;38.80;27.43;;;3.70;99.90;;;4.64;100.00;99771.41;5196246;28;20230;-64
2022/01/18 01:57:29;;;;;;;37.87;26.87;;;3.70;99.90;;;4.62;100.00;99778.81;5185013;28;20218;-63
2022/01/18 02:00:05;;;;;;;39.77;26.63;;;3.70;99.90;;;4.65;100.00;99780.78;5185247;28;20561;-64
2022/01/18 02:02:40;;;;;;;37.67;26.70;;;3.80;99.90;;;4.67;100.00;99772.63;5183107;28;20626;-63
2022/01/18 02:05:14;;;;;;;33.50;25.03;;;3.80;99.90;;;4.68;100.00;99778.59;5184577;28;20246;-62
2022/01/18 02:07:47;;;;;;;37.60;26.10;;;3.80;99.90;;;4.68;100.00;99769.38;5181584;28;20231;-63
2022/01/18 02:10:20;;;;;;;38.60;26.03;;;3.80;99.90;;;4.68;100.00;99764.28;5183935;28;20219;-63
2022/01/18 02:12:53;;;;;;;35.00;26.20;;;3.80;99.90;;;4.64;100.00;99769.78;5184653;28;20226;-64
2022/01/18 02:15:27;;;;;;;43.67;28.00;;;3.80;99.90;;;4.64;100.00;99772.31;5184918;28;20254;-64
2022/01/18 02:23:44;;;;;;;35.00;26.00;;;3.70;99.90;;;4.63;100.00;99767.94;5183625;28;20590;-64
2022/01/18 02:26:17;;;;;;;45.87;27.90;;;3.70;99.90;;;4.59;100.00;99768.34;5185180;28;20232;-62
2022/01/18 02:28:50;;;;;;;35.87;25.07;;;3.70;99.90;;;4.59;100.00;99770.00;5183842;28;20313;-63
2022/01/18 02:31:23;;;;;;;35.00;23.87;;;3.70;99.90;;;4.63;100.00;99767.06;5186326;28;20699;-63
2022/01/18 02:34:02;;;;;;;34.20;24.33;;;3.70;99.90;;;4.63;100.00;99760.34;5188275;28;20254;-64
2022/01/18 02:36:37;;;;;;;41.47;27.00;;;3.80;99.90;;;4.62;100.00;99761.09;5184363;28;20767;-64
2022/01/18 02:39:11;;;;;;;36.70;25.60;;;3.80;99.90;;;4.62;100.00;99755.13;5184313;28;20234;-63
2022/01/18 02:41:50;;;;;;;38.03;25.03;;;3.80;99.90;;;4.61;100.00;99763.47;5181472;28;20723;-62
2022/01/18 02:44:23;;;;;;;40.27;26.23;;;3.80;99.90;;;4.61;100.00;99756.78;5184390;28;20229;-63
2022/01/18 02:46:57;;;;;;;40.03;27.70;;;3.80;99.90;;;4.62;100.00;99760.19;5187186;28;20233;-63
2022/01/18 02:49:31;;;;;;;41.80;26.90;;;3.80;99.90;;;4.59;100.00;99770.00;5184824;28;20412;-60
2022/01/18 02:52:06;;;;;;;34.33;25.63;;;3.70;99.90;;;4.55;100.00;99757.69;5184028;28;20711;-63
2022/01/18 02:54:39;;;;;;;35.37;24.80;;;3.70;99.90;;;4.57;100.00;99766.38;5184134;28;20225;-63
2022/01/18 02:57:14;;;;;;;36.70;26.97;;;3.70;99.90;;;4.59;100.00;99770.00;5184318;28;20248;-63
2022/01/18 02:59:50;;;;;;;37.53;27.37;;;3.70;99.90;;;4.58;100.00;99758.03;5184365;28;20599;-63
2022/01/18 03:05:18;;;;;;;37.67;25.73;;;3.70;99.90;;;4.56;100.00;99754.47;5183576;28;20214;-63
2022/01/18 03:07:52;;;;;;;35.70;23.97;;;3.70;99.90;;;4.59;100.00;99749.72;5184466;28;20712;-63
2022/01/18 03:10:25;;;;;;;40.57;26.60;;;3.80;99.90;;;4.60;100.00;99756.59;5183157;28;20225;-63
2022/01/18 03:12:58;;;;;;;38.30;27.37;;;3.70;99.90;;;4.64;100.00;99751.16;5181501;28;20219;-62
2022/01/18 03:15:33;;;;;;;44.00;27.23;;;3.70;99.90;;;4.66;100.00;99752.19;5189817;28;20750;-64
2022/01/18 03:18:08;;;;;;;43.53;27.20;;;3.70;99.90;;;4.61;100.00;99753.34;5183652;28;20308;-63
2022/01/18 03:20:41;;;;;;;37.07;25.87;;;3.80;99.90;;;4.58;100.00;99748.84;5183326;28;20233;-63
2022/01/18 03:23:19;;;;;;;43.93;26.90;;;3.70;99.90;;;4.59;100.00;99745.56;5183266;28;20224;-63
2022/01/18 03:25:55;;;;;;;37.60;26.33;;;3.70;99.90;;;4.52;100.00;99758.25;5177152;28;20225;-63
2022/01/18 03:28:29;;;;;;;37.97;26.20;;;3.70;99.90;;;4.54;100.00;99743.25;5183404;28;20222;-63
2022/01/18 03:31:02;;;;;;;41.97;26.73;;;3.70;99.90;;;4.61;100.00;99743.22;5182672;28;20225;-63
2022/01/18 03:33:35;;;;;;;46.77;28.10;;;3.70;99.90;;;4.57;100.00;99743.59;5182605;28;20745;-63
2022/01/18 03:36:08;;;;;;;42.33;27.03;;;3.70;99.90;;;4.57;100.00;99751.19;5182717;28;20231;-63
2022/01/18 03:38:43;;;;;;;39.03;26.00;;;3.70;99.90;;;4.54;100.00;99749.22;5184370;28;20249;-63
2022/01/18 03:41:18;;;;;;;40.77;27.47;;;3.70;99.90;;;4.53;100.00;99752.47;5182937;28;20217;-63
2022/01/18 03:43:53;;;;;;;40.43;27.00;;;3.70;99.90;;;4.54;100.00;99758.44;5171502;28;20222;-63
2022/01/18 03:46:26;;;;;;;40.33;27.67;;;3.60;99.90;;;4.58;100.00;99752.97;5179693;28;20228;-63
2022/01/18 03:49:02;;;;;;;38.40;26.37;;;3.60;99.90;;;4.58;100.00;99760.56;5182745;28;20218;-62
2022/01/18 03:51:35;;;;;;;36.10;25.90;;;3.60;99.90;;;4.58;100.00;99756.44;5183376;28;20225;-62
2022/01/18 03:54:09;;;;;;;40.03;26.57;;;3.70;99.90;;;4.58;100.00;99758.03;5182395;28;20230;-63
2022/01/18 03:56:42;;;;;;;37.30;25.23;;;3.70;99.90;;;4.58;100.00;99758.03;5183128;28;20685;-63
2022/01/18 03:59:16;;;;;;;46.43;28.17;;;3.70;99.90;;;4.54;100.00;99766.03;5183199;28;20766;-62
2022/01/18 04:01:49;;;;;;;39.50;25.67;;;3.70;99.90;;;4.54;100.00;99768.56;5182269;28;20700;-63
2022/01/18 04:04:23;;;;;;;44.00;26.80;;;3.70;99.90;;;4.54;100.00;99772.00;5183930;28;20248;-62
2022/01/18 04:06:56;;;;;;;39.03;26.07;;;3.70;99.90;;;4.56;100.00;99770.53;5183164;28;20225;-62
2022/01/18 04:09:30;;;;;;;43.13;27.30;;;3.70;99.90;;;4.57;100.00;99764.75;5183158;28;20218;-63
2022/01/18 04:12:05;;;;;;;41.53;26.50;;;3.70;99.90;;;4.59;100.00;99770.00;5185211;28;20225;-63
2022/01/18 04:14:38;;;;;;;34.63;25.83;;;3.70;99.90;;;4.59;100.00;99764.94;5182251;28;20714;-63
2022/01/18 04:17:19;;;;;;;46.40;28.50;;;3.70;99.90;;;4.59;100.00;99775.06;5183623;28;20226;-62
2022/01/18 04:25:54;;;;;;;60.07;30.27;;;3.80;99.90;;;4.58;100.00;99768.16;5183277;28;20273;-61
2022/01/18 04:28:36;;;;;;;42.10;26.97;;;3.80;99.90;;;4.51;100.00;99762.44;5180700;28;20218;-62
2022/01/18 04:31:11;;;;;;;43.50;27.00;;;3.80;99.90;;;4.58;100.00;99773.22;5179198;28;20218;-62
2022/01/18 04:33:44;;;;;;;45.63;28.27;;;3.80;99.90;;;4.60;100.00;99771.78;5182650;28;20225;-63
2022/01/18 04:36:17;;;;;;;46.73;28.17;;;3.80;99.90;;;4.60;100.00;99761.66;5183783;28;20603;-63
2022/01/18 04:38:51;;;;;;;45.87;27.50;;;3.80;99.90;;;4.60;100.00;99772.69;5182998;28;20218;-63
2022/01/18 04:41:28;;;;;;;42.20;26.57;;;3.80;99.90;;;4.61;100.00;99778.66;5181875;28;20316;-63
2022/01/18 04:48:23;;;;;;;55.07;29.20;;;3.70;99.90;;;4.60;100.00;99772.69;5177556;28;20228;-64
2022/01/18 04:49:54;;;;;;;44.83;26.07;;;3.80;99.90;;;4.59;100.00;99788.63;5184486;28;20261;-63
2022/01/18 04:52:27;;;;;;;46.43;27.37;;;3.70;99.90;;;4.59;100.00;99781.00;5186285;28;20218;-62
2022/01/18 04:55:02;;;;;;;47.43;27.37;;;3.80;99.90;;;4.58;100.00;99783.34;5185161;28;20309;-63
2022/01/18 04:57:52;;;;;;;51.00;29.10;;;3.80;99.90;;;4.61;100.00;99779.56;5185874;28;20585;-62
2022/01/18 05:00:26;;;;;;;46.30;26.83;;;3.80;99.90;;;4.61;100.00;99783.72;5184041;28;20218;-63
2022/01/18 05:02:59;;;;;;;48.67;26.90;;;3.80;99.90;;;4.60;100.00;99784.44;5185894;28;20241;-63
2022/01/18 05:05:36;;;;;;;52.03;27.90;;;3.80;99.90;;;4.62;100.00;99790.59;5185864;28;20305;-62
2022/01/18 05:08:13;;;;;;;54.93;29.87;;;3.80;99.90;;;4.64;100.00;99789.13;5185534;28;20233;-63
2022/01/18 05:10:52;;;;;;;55.60;29.37;;;3.80;99.90;;;4.65;100.00;99790.94;5185246;28;20706;-62
2022/01/18 05:13:50;;;;;;;43.83;26.63;;;3.80;99.90;;;4.63;100.00;99789.84;5184890;28;20226;-63
2022/01/18 05:16:42;;;;;;;50.97;28.70;;;3.80;99.90;;;4.65;100.00;99793.47;5184409;28;20223;-62
2022/01/18 05:19:23;;;;;;;62.70;30.93;;;3.90;99.90;;;4.61;100.00;99793.88;5185594;28;20218;-63
2022/01/18 05:24:47;;;;;;;55.23;29.37;;;3.80;99.90;;;4.63;100.00;99789.84;5186283;28;20232;-63
2022/01/18 05:27:21;;;;;;;72.27;31.97;;;3.80;99.90;;;4.54;100.00;99789.72;5185327;28;20693;-63
2022/01/18 05:29:55;;;;;;;65.77;30.53;;;3.70;99.90;;;4.57;100.00;99796.75;5185187;28;20219;-62
2022/01/18 05:32:28;;;;;;;55.73;29.90;;;3.80;99.90;;;4.57;100.00;99799.28;5185864;28;20240;-62
2022/01/18 05:35:01;;;;;;;59.93;30.27;;;3.70;99.90;;;4.62;100.00;99806.69;5185094;28;20219;-64
2022/01/18 05:37:34;;;;;;;65.70;29.90;;;3.80;99.90;;;4.62;100.00;99805.78;5182080;28;20222;-63
2022/01/18 05:40:09;;;;;;;56.07;28.60;;;3.80;99.90;;;4.66;100.00;99810.44;5180842;28;20233;-65
2022/01/18 05:42:43;;;;;;;51.53;28.43;;;3.70;99.90;;;4.62;100.00;99806.69;5181817;28;20789;-63
2022/01/18 05:45:18;;;;;;;51.57;29.27;;;3.70;99.90;;;4.64;100.00;99805.22;5182465;28;20318;-63
2022/01/18 05:47:51;;;;;;;55.43;28.87;;;3.70;99.90;;;4.66;100.00;99807.91;5185127;28;20576;-63
2022/01/18 05:50:24;;;;;;;54.33;29.77;;;3.70;99.90;;;4.67;100.00;99809.72;5183538;28;20222;-64
2022/01/18 05:52:58;;;;;;;62.63;31.77;;;3.70;99.90;;;4.68;100.00;99809.00;5182851;28;20222;-63
2022/01/18 05:55:32;;;;;;;61.60;31.13;;;3.60;99.90;;;4.68;100.00;99806.47;5181285;28;20271;-63
2022/01/18 05:58:05;;;;;;;69.73;31.30;;;3.70;99.90;;;4.64;100.00;99814.47;5181049;28;20622;-62
2022/01/18 06:00:41;;;;;;;73.63;32.47;;;3.70;99.90;;;4.64;100.00;99817.00;5183591;28;20710;-63
2022/01/18 06:03:16;;;;;;;64.57;30.73;;;3.70;99.90;;;4.59;100.00;99813.03;5185146;28;20603;-63
2022/01/18 06:08:40;;;;;;;68.80;30.10;;;3.70;99.90;;;4.61;100.00;99814.13;5185843;28;20218;-64
2022/01/18 06:11:13;;;;;;;59.37;29.27;;;3.60;99.90;;;4.67;100.00;99825.81;5187294;28;20226;-62
2022/01/18 06:13:46;;;;;;;67.23;31.60;;;3.60;99.90;;;4.68;100.00;99821.66;5185262;28;20237;-62
2022/01/18 06:16:21;;;;;;;74.57;32.07;;;3.70;99.90;;;4.61;100.00;99819.19;5179980;28;20733;-62
2022/01/18 06:18:54;;;;;;;51.63;27.43;;;3.70;99.90;;;4.55;100.00;99818.47;5182305;28;20233;-62
2022/01/18 06:21:28;;;;;;;54.67;28.90;;;3.80;99.90;;;4.58;100.00;99811.22;5180850;28;20636;-62
2022/01/18 06:24:01;;;;;;;66.33;30.13;;;3.70;99.90;;;4.63;100.00;99815.16;5182160;28;20256;-62
2022/01/18 06:26:34;;;;;;;65.80;30.10;;;3.70;99.90;;;4.62;100.00;99820.97;5184077;28;20210;-64
2022/01/18 06:29:07;;;;;;;58.80;28.83;;;3.70;99.90;;;4.53;100.00;99810.72;5184343;28;20502;-63
2022/01/18 06:31:41;;;;;;;60.53;27.60;;;3.60;99.90;;;4.51;100.00;99817.25;5183466;28;20232;-63
2022/01/18 06:34:14;;;;;;;60.77;29.90;;;3.60;99.90;;;4.50;100.00;99820.50;5182778;28;20275;-62
2022/01/18 06:36:47;;;;;;;59.00;29.03;;;3.60;99.90;;;4.47;100.00;99826.13;5180158;28;20227;-61
2022/01/18 06:39:21;;;;;;;57.60;27.60;;;3.60;99.90;;;4.47;100.00;99826.13;5180909;28;20679;-62
2022/01/18 06:41:54;;;;;;;65.07;29.23;;;3.60;99.90;;;4.44;100.00;99835.91;5183793;28;20233;-62
2022/01/18 06:44:27;;;;;;;56.40;27.80;;;3.50;99.90;;;4.44;100.00;99843.50;5190820;28;20590;-62
2022/01/18 06:47:01;;;;;;;79.03;30.97;;;3.50;99.90;;;4.36;100.00;99840.84;5198479;28;20222;-63
2022/01/18 06:49:34;;;;;;;74.47;32.47;;;3.50;99.90;;;4.33;100.00;99843.91;5184867;28;20765;-62
2022/01/18 06:52:08;;;;;;;67.03;30.77;;;3.50;99.90;;;4.35;100.00;99855.13;5184308;28;20587;-62
2022/01/18 06:54:41;;;;;;;67.57;30.53;;;3.50;99.90;;;4.37;100.00;99858.72;5183470;28;20656;-63
2022/01/18 06:57:15;;;;;;;64.27;29.63;;;3.50;99.90;;;4.37;100.00;99862.88;5183590;28;20222;-62
2022/01/18 06:59:48;;;;;;;65.00;31.53;;;3.60;99.90;;;4.36;100.00;99862.00;5177198;28;20313;-64
2022/01/18 07:02:23;;;;;;;69.40;32.07;;;3.60;99.90;;;4.39;100.00;99871.56;5186369;28;20712;-63
2022/01/18 07:04:56;;;;;;;81.47;35.93;;;3.60;99.90;;;4.41;100.00;99875.19;5183673;28;20218;-63
2022/01/18 07:07:29;;;;;;;69.50;32.53;;;3.60;99.90;;;4.43;100.00;99873.69;5184489;28;20211;-63
2022/01/18 07:10:02;;;;;;;74.30;30.77;;;3.60;99.90;;;4.43;100.00;99864.47;5182309;28;20218;-63
2022/01/18 07:12:35;;;;;;;63.57;28.07;;;3.60;99.90;;;4.45;100.00;99868.09;5183413;28;20218;-63
2022/01/18 07:15:10;;;;;;;73.87;29.23;;;3.70;99.90;;;4.46;100.00;99864.84;5183389;28;20217;-63
2022/01/18 07:17:44;;;;;;;62.43;27.50;;;3.70;99.90;;;4.45;100.00;99870.63;5186538;28;20598;-62
2022/01/18 07:20:17;;;;;;;57.43;26.97;;;3.60;99.90;;;4.47;100.00;99866.63;5183934;28;20697;-63
2022/01/18 07:22:50;;;;;;;64.23;28.77;;;3.60;99.90;;;4.47;100.00;99871.69;5183409;28;20222;-62
2022/01/18 07:25:25;;;;;;;58.53;27.07;;;3.60;99.90;;;4.50;100.00;99872.03;5183141;28;20218;-62
2022/01/18 07:27:58;;;;;;;62.37;27.70;;;3.70;99.90;;;4.49;100.00;99885.44;5183732;28;20218;-62
2022/01/18 07:30:31;;;;;;;60.90;27.27;;;3.70;99.90;;;4.52;100.00;99884.84;5188682;28;20245;-63
2022/01/18 07:33:06;;;;;;;61.23;28.40;;;3.70;99.90;;;4.51;100.00;99889.03;5185398;28;20572;-62
2022/01/18 07:35:39;;;;;;;64.40;30.27;;;3.70;99.90;;;4.51;100.00;99894.09;5182396;28;20594;-61
2022/01/18 07:38:17;;;;;;;70.77;29.97;;;3.70;99.90;;;4.52;100.00;99897.50;5182505;28;20668;-62
2022/01/18 07:40:53;;;;;;;62.87;29.60;;;3.70;99.90;;;4.50;100.00;99891.41;5187640;28;20279;-62
2022/01/18 07:43:26;;;;;;;55.83;28.23;;;3.70;99.90;;;4.51;100.00;99894.09;5183074;28;20757;-63
2022/01/18 07:46:00;;;;;;;62.93;28.97;;;3.70;99.90;;;4.54;100.00;99895.19;5185106;28;20605;-63
2022/01/18 07:48:35;;;;;;;58.30;28.00;;;3.70;99.90;;;4.52;100.00;99902.59;5184024;28;20214;-63
2022/01/18 07:51:08;;;;;;;64.57;28.53;;;3.70;99.90;;;4.55;100.00;99891.91;5182449;28;20562;-63
2022/01/18 07:53:41;;;;;;;60.00;25.77;;;3.70;99.90;;;4.58;100.00;99894.78;5184149;28;20248;-63
2022/01/18 07:56:14;;;;;;;53.57;26.93;;;3.70;99.90;;;4.63;100.00;99893.69;5183127;28;20597;-63
2022/01/18 07:58:47;;;;;;;67.03;27.53;;;3.70;99.90;;;4.63;100.00;99899.63;5182169;28;20230;-66
2022/01/18 08:01:21;;;;;;;67.13;28.47;;;3.80;99.90;;;4.66;100.00;99905.03;5183636;28;20236;-62
2022/01/18 08:03:55;;;;;;;70.23;30.83;;;3.80;99.90;;;4.71;100.00;99906.47;5182925;28;20226;-63
2022/01/18 08:06:28;;;;;;;59.90;27.60;;;3.90;99.90;;;4.69;100.00;99901.97;5183950;28;20733;-63
2022/01/18 08:09:01;;;;;;;54.93;26.53;;;3.80;99.90;;;4.72;100.00;99904.84;5182442;28;20229;-62
2022/01/18 08:11:35;;;;;;;49.57;25.57;;;3.80;99.90;;;4.74;100.00;99903.38;5183021;28;20239;-62
2022/01/18 08:14:13;;;;;;;59.77;27.10;;;3.80;99.90;;;4.76;100.00;99901.94;5183019;28;20313;-63
2022/01/18 08:17:00;;;;;;;53.30;27.20;;;3.80;99.90;;;4.77;100.00;99898.66;5173538;28;20219;-63
2022/01/18 08:19:36;;;;;;;48.40;24.63;;;3.80;99.90;;;4.78;100.00;99900.50;5182598;28;20248;-63
2022/01/18 08:22:13;;;;;;;61.00;25.93;;;3.90;99.90;;;4.76;100.00;99901.03;5185593;28;20218;-62
2022/01/18 08:24:46;;;;;;;64.37;28.13;;;3.90;99.90;;;4.79;100.00;99909.88;5189960;28;20226;-63
2022/01/18 08:27:21;;;;;;;58.47;28.77;;;3.90;99.90;;;4.77;100.00;99908.78;5185123;28;20646;-63
2022/01/18 08:29:54;;;;;;;60.93;27.60;;;3.90;99.90;;;4.79;100.00;99911.50;5185739;28;20218;-63
2022/01/18 08:32:27;;;;;;;69.67;29.10;;;3.90;99.90;;;4.79;100.00;99901.38;5185116;28;20587;-63
2022/01/18 08:35:01;;;;;;;62.57;29.43;;;3.90;99.90;;;4.80;100.00;99906.59;5184842;28;20222;-63
2022/01/18 08:37:34;;;;;;;55.90;26.33;;;3.90;99.90;;;4.85;100.00;99905.50;5182042;28;20836;-63
2022/01/18 08:40:09;;;;;;;57.13;27.40;;;4.00;99.90;;;4.89;100.00;99905.13;5184167;28;20596;-64
2022/01/18 08:42:43;;;;;;;48.50;25.43;;;4.00;99.90;;;4.92;100.00;99905.47;5185245;28;20218;-63
2022/01/18 08:45:16;;;;;;;54.20;25.87;;;3.90;99.90;;;4.91;100.00;99908.72;5186124;28;20218;-63
2022/01/18 08:47:52;;;;;;;53.17;30.00;;;4.00;99.90;;;4.92;100.00;99904.53;5187008;28;20226;-63
2022/01/18 08:50:27;;;;;;;51.60;25.80;;;4.00;99.90;;;4.94;100.00;99910.69;5192440;28;20225;-63
2022/01/18 08:53:00;;;;;;;45.43;27.07;;;4.00;99.90;;;5.00;100.00;99902.88;5185137;28;20232;-63
2022/01/18 08:55:34;;;;;;;47.63;26.07;;;4.10;99.90;;;4.99;100.00;99901.09;5185074;28;20245;-63
2022/01/18 08:58:08;;;;;;;49.00;26.80;;;4.00;99.90;;;5.04;100.00;99905.03;5186044;28;20221;-63
2022/01/18 09:00:41;;;;;;;46.27;25.87;;;4.10;99.90;;;5.08;100.00;99909.69;5185928;28;20272;-63
2022/01/18 09:03:15;;;;;;;47.63;26.70;;;4.10;99.90;;;5.14;100.00;99907.84;5187916;28;20740;-63
2022/01/18 09:05:50;;;;;;;45.17;24.93;;;4.20;99.90;;;5.23;100.00;99906.31;5186923;28;20273;-63
2022/01/18 09:08:24;;;;;;;39.20;23.63;;;4.20;99.90;;;5.28;100.00;99910.28;5182387;28;20221;-63
2022/01/18 09:10:57;;;;;;;41.90;22.90;;;4.20;99.90;;;5.24;100.00;99913.22;5186005;28;20230;-61
2022/01/18 09:13:34;;;;;;;39.10;22.43;;;4.20;99.90;;;5.16;100.00;99911.47;5184510;28;20240;-62
2022/01/18 09:16:09;;;;;;;37.43;21.57;;;4.10;99.90;;;5.11;100.00;99910.03;5190351;28;20641;-62
2022/01/18 09:18:43;;;;;;;37.07;21.93;;;4.10;99.90;;;5.06;100.00;99918.75;5192794;28;20226;-63
2022/01/18 09:21:18;;;;;;;42.07;22.83;;;4.10;99.90;;;5.02;100.00;99911.56;5186510;28;20348;-63
2022/01/18 09:23:51;;;;;;;33.90;20.87;;;4.00;99.90;;;4.97;100.00;99911.94;5186217;28;20737;-63
2022/01/18 09:26:25;;;;;;;42.37;23.57;;;4.10;99.90;;;5.12;100.00;99916.91;5187550;28;20552;-63
2022/01/18 09:28:58;;;;;;;44.47;24.53;;;4.10;99.90;;;5.26;100.00;99926.03;5184725;28;20308;-64
2022/01/18 09:31:31;;;;;;;43.57;24.40;;;4.30;99.90;;;5.32;100.00;99925.13;5191115;28;20222;-63
2022/01/18 09:34:05;;;;;;;44.00;24.73;;;4.50;99.90;;;5.66;100.00;99926.25;5183584;28;20223;-64
2022/01/18 09:36:39;;;;;;;46.50;24.37;;;4.80;99.90;;;5.99;100.00;99923.09;5184726;28;20223;-63
2022/01/18 09:39:13;;;;;;;42.30;24.53;;;5.00;99.90;;;6.00;100.00;99923.25;5184228;28;20229;-64
2022/01/18 09:41:51;;;;;;;39.80;22.97;;;5.20;99.90;;;6.00;100.00;99920.72;5184628;28;20219;-63
2022/01/18 09:44:24;;;;;;;34.50;21.63;;;5.00;99.90;;;6.09;100.00;99928.41;5183261;28;20592;-65
2022/01/18 09:46:57;;;;;;;35.03;22.77;;;5.00;99.90;;;6.27;98.85;99938.03;5185662;28;20222;-63
2022/01/18 09:49:30;;;;;;;34.20;21.50;;;5.00;99.90;;;6.17;99.41;99939.41;5184690;28;20211;-64
2022/01/18 09:52:06;;;;;;;33.97;20.57;;;5.00;99.90;;;6.28;97.22;99937.28;5185749;28;20224;-63
2022/01/18 09:54:40;;;;;;;31.30;19.50;;;5.00;99.90;;;6.13;99.18;99934.75;5185886;28;20233;-63
2022/01/18 09:57:13;;;;;;;30.83;19.20;;;5.00;99.90;;;6.16;99.17;99930.91;5184904;28;20233;-63
2022/01/18 09:59:46;;;;;;;33.47;20.00;;;5.00;99.90;;;6.22;98.91;99935.72;5185198;28;20226;-63
2022/01/18 10:02:19;;;;;;;30.73;20.47;;;5.00;99.90;;;6.35;97.70;99937.94;5188462;28;20237;-63
2022/01/18 10:04:54;;;;;;;27.93;17.83;;;5.20;99.90;;;6.41;96.90;99936.97;5192867;28;20724;-63
2022/01/18 10:07:36;;;;;;;27.70;18.67;;;5.20;99.90;;;6.26;97.41;99931.13;5184426;28;20228;-63
2022/01/18 10:10:10;;;;;;;31.90;19.67;;;5.10;99.90;;;6.18;97.96;99929.44;5183664;28;20288;-63
2022/01/18 10:12:45;;;;;;;27.33;18.57;;;5.00;99.90;;;6.29;96.50;99931.44;5185581;28;20220;-63
2022/01/18 10:15:19;;;;;;;28.90;18.80;;;5.10;99.90;;;6.56;94.29;99926.63;5185179;28;20217;-63
2022/01/18 10:18:03;;;;;;;29.53;18.70;;;5.30;99.90;;;6.80;95.44;99924.13;5185069;28;20229;-63
2022/01/18 10:20:53;;;;;;;26.60;17.23;;;5.60;99.90;;;7.04;94.75;99913.09;5186040;28;20230;-64
2022/01/18 10:23:27;;;;;;;24.23;16.70;;;5.90;99.90;;;7.07;94.83;99915.94;5184429;28;20218;-63
2022/01/18 10:26:18;;;;;;;22.23;15.43;;;6.10;99.90;;;7.02;92.96;99917.09;5183383;28;20232;-61
2022/01/18 10:29:04;;;;;;;20.33;13.57;;;6.10;99.90;;;7.36;88.96;99912.97;5186699;28;20651;-63
2022/01/18 10:31:43;;;;;;;19.47;13.77;;;6.30;99.90;;;7.33;88.99;99912.66;5185729;28;20218;-62
2022/01/18 10:34:28;;;;;;;18.50;13.37;;;6.30;99.90;;;7.11;88.18;99909.53;5184060;28;20250;-63
2022/01/18 10:37:04;;;;;;;20.23;13.20;;;6.20;99.90;;;7.11;88.84;99905.34;5181890;28;20219;-63
2022/01/18 10:39:50;;;;;;;18.27;13.13;;;6.10;99.90;;;6.84;87.63;99897.38;5179340;28;20649;-62
2022/01/18 10:42:28;;;;;;;16.53;12.30;;;5.90;99.90;;;6.85;88.67;99894.13;5182974;28;20218;-64
2022/01/18 10:45:05;;;;;;;17.50;12.43;;;5.90;99.90;;;6.65;87.97;99892.94;5183581;28;20226;-63
2022/01/18 10:47:50;;;;;;;16.77;12.13;;;5.80;99.90;;;6.63;90.33;99890.97;5184987;28;20223;-64
2022/01/18 10:50:23;;;;;;;14.53;11.23;;;5.70;99.90;;;6.54;89.69;99880.72;5183620;28;20592;-63
2022/01/18 10:53:12;;;;;;;13.40;10.37;;;5.60;99.90;;;6.56;90.14;99873.28;5184761;28;20297;-63
2022/01/18 10:55:50;;;;;;;14.37;10.77;;;5.60;99.90;;;6.58;88.92;99876.88;5184159;28;20227;-65
2022/01/18 10:58:23;;;;;;;13.23;9.53;;;5.70;99.90;;;6.79;89.13;99873.16;5180883;28;20226;-62
2022/01/18 11:01:17;;;;;;;13.63;10.80;;;5.90;99.90;;;6.89;87.35;99860.63;5183185;28;20218;-63
2022/01/18 11:04:11;;;;;;;16.00;11.23;;;6.00;99.90;;;6.90;88.01;99853.19;5177174;28;20251;-63
2022/01/18 11:06:58;;;;;;;16.00;10.90;;;6.10;99.90;;;7.06;91.31;99855.66;5183949;28;20230;-66
2022/01/18 11:09:32;;;;;;;15.00;10.47;;;6.30;99.90;;;7.09;87.84;99861.06;5183103;28;20608;-63
2022/01/18 11:12:08;;;;;;;15.13;11.47;;;6.20;99.90;;;7.05;87.64;99855.50;5185744;28;20317;-63
2022/01/18 11:14:45;;;;;;;14.70;11.63;;;6.20;99.90;;;7.16;86.86;99855.88;5180537;28;20229;-63
2022/01/18 11:17:23;;;;;;;13.07;9.63;;;6.30;99.90;;;7.16;87.03;99848.25;5185845;28;20217;-63
2022/01/18 11:19:57;;;;;;;11.57;9.90;;;6.30;99.90;;;7.15;86.62;99846.44;5182037;28;20329;-63
2022/01/18 11:22:30;;;;;;;13.63;10.50;;;6.30;99.90;;;7.15;86.70;99843.91;5183532;28;20223;-63
2022/01/18 11:25:05;;;;;;;14.63;10.63;;;6.30;99.90;;;7.15;83.54;99845.53;5181705;28;20222;-63